sensor_id;sensor_type;location;lat;lon;timestamp;P1;durP1;ratioP1;P2;durP2;ratioP2
23588;SDS011;11972;48.078;11.876;2023-05-07T00:02:01;3.85;;;3.05;;
23588;SDS011;11972;48.078;11.876;2023-05-07T00:06:03;5.75;;;3.65;;
23588;SDS011;11972;48.078;11.876;2023-05-07T00:10:04;3.05;;;2.75;;
23588;SDS011;11972;48.078;11.876;2023-05-07T00:14:06;5.90;;;3.22;;
23588;SDS011;11972;48.078;11.876;2023-05-07T00:18:06;3.42;;;2.75;;
23588;SDS011;11972;48.078;11.876;2023-05-07T00:22:07;4.70;;;3.13;;
23588;SDS011;11972;48.078;11.876;2023-05-07T00:26:08;3.65;;;3.10;;
23588;SDS011;11972;48.078;11.876;2023-05-07T00:30:08;4.95;;;3.00;;
23588;SDS011;11972;48.078;11.876;2023-05-07T00:34:09;4.10;;;2.78;;
23588;SDS011;11972;48.078;11.876;2023-05-07T00:38:10;4.82;;;3.03;;
23588;SDS011;11972;48.078;11.876;2023-05-07T00:42:10;3.58;;;2.95;;
23588;SDS011;11972;48.078;11.876;2023-05-07T00:46:14;3.28;;;3.03;;
23588;SDS011;11972;48.078;11.876;2023-05-07T00:50:15;3.78;;;2.97;;
23588;SDS011;11972;48.078;11.876;2023-05-07T00:54:17;3.80;;;2.78;;
23588;SDS011;11972;48.078;11.876;2023-05-07T00:58:17;5.30;;;3.30;;
23588;SDS011;11972;48.078;11.876;2023-05-07T01:02:17;3.50;;;3.20;;
23588;SDS011;11972;48.078;11.876;2023-05-07T01:06:18;3.60;;;3.30;;
23588;SDS011;11972;48.078;11.876;2023-05-07T01:10:21;3.60;;;3.30;;
23588;SDS011;11972;48.078;11.876;2023-05-07T01:14:22;5.82;;;3.00;;
23588;SDS011;11972;48.078;11.876;2023-05-07T01:18:23;3.45;;;3.15;;
23588;SDS011;11972;48.078;11.876;2023-05-07T01:22:31;4.93;;;3.38;;
23588;SDS011;11972;48.078;11.876;2023-05-07T01:26:33;3.35;;;3.05;;
23588;SDS011;11972;48.078;11.876;2023-05-07T01:30:33;2.90;;;2.70;;
23588;SDS011;11972;48.078;11.876;2023-05-07T01:34:34;3.10;;;2.90;;
23588;SDS011;11972;48.078;11.876;2023-05-07T01:38:37;4.57;;;3.10;;
23588;SDS011;11972;48.078;11.876;2023-05-07T01:42:38;4.55;;;2.85;;
23588;SDS011;11972;48.078;11.876;2023-05-07T01:46:38;5.82;;;2.72;;
23588;SDS011;11972;48.078;11.876;2023-05-07T01:50:39;3.40;;;3.10;;
23588;SDS011;11972;48.078;11.876;2023-05-07T01:54:39;2.97;;;2.78;;
23588;SDS011;11972;48.078;11.876;2023-05-07T01:58:40;3.10;;;2.90;;
23588;SDS011;11972;48.078;11.876;2023-05-07T02:02:40;3.00;;;2.80;;
23588;SDS011;11972;48.078;11.876;2023-05-07T02:06:41;4.28;;;2.63;;
23588;SDS011;11972;48.078;11.876;2023-05-07T02:10:41;2.95;;;2.67;;
23588;SDS011;11972;48.078;11.876;2023-05-07T02:14:41;3.47;;;2.90;;
23588;SDS011;11972;48.078;11.876;2023-05-07T02:18:42;3.70;;;2.95;;
23588;SDS011;11972;48.078;11.876;2023-05-07T02:22:42;2.78;;;2.58;;
23588;SDS011;11972;48.078;11.876;2023-05-07T02:26:43;3.33;;;3.00;;
23588;SDS011;11972;48.078;11.876;2023-05-07T02:30:43;5.63;;;3.10;;
23588;SDS011;11972;48.078;11.876;2023-05-07T02:34:43;3.80;;;3.38;;
23588;SDS011;11972;48.078;11.876;2023-05-07T02:38:44;4.65;;;2.95;;
23588;SDS011;11972;48.078;11.876;2023-05-07T02:42:44;3.50;;;3.20;;
23588;SDS011;11972;48.078;11.876;2023-05-07T02:46:44;9.93;;;3.20;;
23588;SDS011;11972;48.078;11.876;2023-05-07T02:50:45;3.33;;;2.72;;
23588;SDS011;11972;48.078;11.876;2023-05-07T02:54:45;3.63;;;3.33;;
23588;SDS011;11972;48.078;11.876;2023-05-07T02:58:45;3.65;;;3.15;;
23588;SDS011;11972;48.078;11.876;2023-05-07T03:02:46;3.78;;;3.47;;
23588;SDS011;11972;48.078;11.876;2023-05-07T03:06:46;4.50;;;4.15;;
23588;SDS011;11972;48.078;11.876;2023-05-07T03:10:46;3.67;;;3.37;;
23588;SDS011;11972;48.078;11.876;2023-05-07T03:14:47;4.47;;;3.58;;
23588;SDS011;11972;48.078;11.876;2023-05-07T03:18:47;4.70;;;4.03;;
23588;SDS011;11972;48.078;11.876;2023-05-07T03:22:47;5.43;;;3.83;;
23588;SDS011;11972;48.078;11.876;2023-05-07T03:26:48;5.70;;;5.13;;
23588;SDS011;11972;48.078;11.876;2023-05-07T03:30:48;5.78;;;5.35;;
23588;SDS011;11972;48.078;11.876;2023-05-07T03:34:49;5.35;;;4.95;;
23588;SDS011;11972;48.078;11.876;2023-05-07T03:38:49;5.90;;;5.30;;
23588;SDS011;11972;48.078;11.876;2023-05-07T03:42:50;5.13;;;4.60;;
23588;SDS011;11972;48.078;11.876;2023-05-07T03:46:50;5.68;;;5.10;;
23588;SDS011;11972;48.078;11.876;2023-05-07T03:50:50;4.85;;;4.43;;
23588;SDS011;11972;48.078;11.876;2023-05-07T03:54:52;5.80;;;5.18;;
23588;SDS011;11972;48.078;11.876;2023-05-07T03:58:53;6.07;;;5.47;;
23588;SDS011;11972;48.078;11.876;2023-05-07T04:02:54;6.75;;;6.15;;
23588;SDS011;11972;48.078;11.876;2023-05-07T04:06:54;6.85;;;6.25;;
23588;SDS011;11972;48.078;11.876;2023-05-07T04:10:55;6.28;;;5.78;;
23588;SDS011;11972;48.078;11.876;2023-05-07T04:14:56;6.43;;;5.82;;
23588;SDS011;11972;48.078;11.876;2023-05-07T04:18:56;9.60;;;7.15;;
23588;SDS011;11972;48.078;11.876;2023-05-07T04:22:57;7.40;;;6.80;;
23588;SDS011;11972;48.078;11.876;2023-05-07T04:26:57;8.30;;;7.57;;
23588;SDS011;11972;48.078;11.876;2023-05-07T04:30:58;8.07;;;7.47;;
23588;SDS011;11972;48.078;11.876;2023-05-07T04:34:59;9.67;;;8.57;;
23588;SDS011;11972;48.078;11.876;2023-05-07T04:38:59;8.10;;;7.33;;
23588;SDS011;11972;48.078;11.876;2023-05-07T04:43:00;9.25;;;8.10;;
23588;SDS011;11972;48.078;11.876;2023-05-07T04:47:01;8.35;;;7.60;;
23588;SDS011;11972;48.078;11.876;2023-05-07T04:51:01;10.98;;;8.02;;
23588;SDS011;11972;48.078;11.876;2023-05-07T04:55:01;8.50;;;7.73;;
23588;SDS011;11972;48.078;11.876;2023-05-07T04:59:02;9.02;;;7.30;;
23588;SDS011;11972;48.078;11.876;2023-05-07T05:03:02;8.68;;;7.30;;
23588;SDS011;11972;48.078;11.876;2023-05-07T05:07:03;8.63;;;7.93;;
23588;SDS011;11972;48.078;11.876;2023-05-07T05:11:04;9.48;;;7.65;;
23588;SDS011;11972;48.078;11.876;2023-05-07T05:15:04;8.25;;;7.63;;
23588;SDS011;11972;48.078;11.876;2023-05-07T05:19:05;8.52;;;7.80;;
23588;SDS011;11972;48.078;11.876;2023-05-07T05:23:07;8.70;;;7.90;;
23588;SDS011;11972;48.078;11.876;2023-05-07T05:27:07;8.45;;;7.75;;
23588;SDS011;11972;48.078;11.876;2023-05-07T05:31:08;7.88;;;7.18;;
23588;SDS011;11972;48.078;11.876;2023-05-07T05:35:08;9.35;;;8.57;;
23588;SDS011;11972;48.078;11.876;2023-05-07T05:39:09;8.52;;;7.72;;
23588;SDS011;11972;48.078;11.876;2023-05-07T05:43:09;7.53;;;6.82;;
23588;SDS011;11972;48.078;11.876;2023-05-07T05:47:09;8.45;;;6.72;;
23588;SDS011;11972;48.078;11.876;2023-05-07T05:51:10;7.38;;;6.70;;
23588;SDS011;11972;48.078;11.876;2023-05-07T05:55:10;6.00;;;5.57;;
23588;SDS011;11972;48.078;11.876;2023-05-07T05:59:10;4.82;;;4.53;;
23588;SDS011;11972;48.078;11.876;2023-05-07T06:03:11;4.70;;;4.20;;
23588;SDS011;11972;48.078;11.876;2023-05-07T06:07:11;4.20;;;3.90;;
23588;SDS011;11972;48.078;11.876;2023-05-07T06:11:11;4.43;;;3.50;;
23588;SDS011;11972;48.078;11.876;2023-05-07T06:15:12;3.50;;;3.17;;
23588;SDS011;11972;48.078;11.876;2023-05-07T06:19:12;3.25;;;2.92;;
23588;SDS011;11972;48.078;11.876;2023-05-07T06:23:13;2.80;;;2.60;;
23588;SDS011;11972;48.078;11.876;2023-05-07T06:27:14;4.70;;;2.75;;
23588;SDS011;11972;48.078;11.876;2023-05-07T06:31:15;2.70;;;2.50;;
23588;SDS011;11972;48.078;11.876;2023-05-07T06:35:17;3.97;;;2.35;;
23588;SDS011;11972;48.078;11.876;2023-05-07T06:39:17;3.50;;;2.55;;
23588;SDS011;11972;48.078;11.876;2023-05-07T06:43:18;2.50;;;2.30;;
23588;SDS011;11972;48.078;11.876;2023-05-07T06:47:18;2.90;;;2.17;;
23588;SDS011;11972;48.078;11.876;2023-05-07T06:51:18;3.03;;;2.47;;
23588;SDS011;11972;48.078;11.876;2023-05-07T06:55:19;3.83;;;2.80;;
23588;SDS011;11972;48.078;11.876;2023-05-07T06:59:19;13.82;;;11.18;;
23588;SDS011;11972;48.078;11.876;2023-05-07T07:03:20;2.90;;;2.70;;
23588;SDS011;11972;48.078;11.876;2023-05-07T07:07:23;3.78;;;2.47;;
23588;SDS011;11972;48.078;11.876;2023-05-07T07:11:23;2.77;;;2.57;;
23588;SDS011;11972;48.078;11.876;2023-05-07T07:15:23;4.33;;;2.10;;
23588;SDS011;11972;48.078;11.876;2023-05-07T07:19:25;2.47;;;2.28;;
23588;SDS011;11972;48.078;11.876;2023-05-07T07:23:26;2.72;;;2.47;;
23588;SDS011;11972;48.078;11.876;2023-05-07T07:27:26;2.40;;;2.20;;
23588;SDS011;11972;48.078;11.876;2023-05-07T07:31:26;2.20;;;2.00;;
23588;SDS011;11972;48.078;11.876;2023-05-07T07:35:27;2.70;;;2.50;;
23588;SDS011;11972;48.078;11.876;2023-05-07T07:39:31;3.33;;;2.88;;
23588;SDS011;11972;48.078;11.876;2023-05-07T07:43:34;2.40;;;2.20;;
23588;SDS011;11972;48.078;11.876;2023-05-07T07:47:35;3.25;;;2.92;;
23588;SDS011;11972;48.078;11.876;2023-05-07T07:51:35;2.58;;;2.33;;
23588;SDS011;11972;48.078;11.876;2023-05-07T07:55:39;4.38;;;3.42;;
23588;SDS011;11972;48.078;11.876;2023-05-07T07:59:40;3.60;;;2.45;;
23588;SDS011;11972;48.078;11.876;2023-05-07T08:03:43;2.53;;;2.33;;
23588;SDS011;11972;48.078;11.876;2023-05-07T08:07:43;2.78;;;2.58;;
23588;SDS011;11972;48.078;11.876;2023-05-07T08:11:44;2.90;;;2.70;;
23588;SDS011;11972;48.078;11.876;2023-05-07T08:15:44;2.53;;;2.33;;
23588;SDS011;11972;48.078;11.876;2023-05-07T08:19:44;2.90;;;2.70;;
23588;SDS011;11972;48.078;11.876;2023-05-07T08:23:44;4.67;;;4.23;;
23588;SDS011;11972;48.078;11.876;2023-05-07T08:27:45;3.20;;;2.97;;
23588;SDS011;11972;48.078;11.876;2023-05-07T08:31:45;2.90;;;2.70;;
23588;SDS011;11972;48.078;11.876;2023-05-07T08:35:45;4.47;;;2.40;;
23588;SDS011;11972;48.078;11.876;2023-05-07T08:39:46;3.10;;;2.63;;
23588;SDS011;11972;48.078;11.876;2023-05-07T08:43:49;3.20;;;2.20;;
23588;SDS011;11972;48.078;11.876;2023-05-07T08:47:51;2.38;;;2.17;;
23588;SDS011;11972;48.078;11.876;2023-05-07T08:51:55;2.70;;;2.50;;
23588;SDS011;11972;48.078;11.876;2023-05-07T08:55:56;3.40;;;3.20;;
23588;SDS011;11972;48.078;11.876;2023-05-07T08:59:57;2.90;;;2.67;;
23588;SDS011;11972;48.078;11.876;2023-05-07T09:03:57;2.30;;;1.50;;
23588;SDS011;11972;48.078;11.876;2023-05-07T09:08:02;1.90;;;1.80;;
23588;SDS011;11972;48.078;11.876;2023-05-07T09:12:03;3.00;;;2.80;;
23588;SDS011;11972;48.078;11.876;2023-05-07T09:16:09;2.22;;;1.83;;
23588;SDS011;11972;48.078;11.876;2023-05-07T09:20:11;1.90;;;1.70;;
23588;SDS011;11972;48.078;11.876;2023-05-07T09:24:11;3.20;;;1.92;;
23588;SDS011;11972;48.078;11.876;2023-05-07T09:28:15;3.20;;;2.53;;
23588;SDS011;11972;48.078;11.876;2023-05-07T09:32:16;1.88;;;1.70;;
23588;SDS011;11972;48.078;11.876;2023-05-07T09:36:16;3.58;;;2.03;;
23588;SDS011;11972;48.078;11.876;2023-05-07T09:40:21;3.03;;;2.63;;
23588;SDS011;11972;48.078;11.876;2023-05-07T09:44:29;2.40;;;2.03;;
23588;SDS011;11972;48.078;11.876;2023-05-07T09:48:32;2.33;;;1.80;;
23588;SDS011;11972;48.078;11.876;2023-05-07T09:52:37;2.67;;;1.80;;
23588;SDS011;11972;48.078;11.876;2023-05-07T09:56:40;2.70;;;2.20;;
23588;SDS011;11972;48.078;11.876;2023-05-07T10:00:43;2.28;;;1.67;;
23588;SDS011;11972;48.078;11.876;2023-05-07T10:04:45;1.45;;;1.35;;
23588;SDS011;11972;48.078;11.876;2023-05-07T10:08:46;1.80;;;1.70;;
23588;SDS011;11972;48.078;11.876;2023-05-07T10:12:47;1.52;;;1.42;;
23588;SDS011;11972;48.078;11.876;2023-05-07T10:16:47;2.10;;;1.90;;
23588;SDS011;11972;48.078;11.876;2023-05-07T10:20:48;1.27;;;1.17;;
23588;SDS011;11972;48.078;11.876;2023-05-07T10:24:51;1.23;;;1.00;;
23588;SDS011;11972;48.078;11.876;2023-05-07T10:28:56;1.65;;;1.30;;
23588;SDS011;11972;48.078;11.876;2023-05-07T10:33:02;2.15;;;1.38;;
23588;SDS011;11972;48.078;11.876;2023-05-07T10:37:08;2.08;;;1.20;;
23588;SDS011;11972;48.078;11.876;2023-05-07T10:41:10;1.17;;;1.05;;
23588;SDS011;11972;48.078;11.876;2023-05-07T10:45:11;2.35;;;0.90;;
23588;SDS011;11972;48.078;11.876;2023-05-07T10:49:16;1.77;;;1.10;;
23588;SDS011;11972;48.078;11.876;2023-05-07T10:57:33;3.20;;;1.20;;
23588;SDS011;11972;48.078;11.876;2023-05-07T11:14:47;1.17;;;0.95;;
23588;SDS011;11972;48.078;11.876;2023-05-07T11:18:53;1.20;;;0.90;;
23588;SDS011;11972;48.078;11.876;2023-05-07T11:22:55;1.50;;;1.10;;
23588;SDS011;11972;48.078;11.876;2023-05-07T11:26:57;2.83;;;1.10;;
23588;SDS011;11972;48.078;11.876;2023-05-07T11:30:58;1.80;;;0.85;;
23588;SDS011;11972;48.078;11.876;2023-05-07T11:34:59;1.65;;;0.80;;
23588;SDS011;11972;48.078;11.876;2023-05-07T11:39:00;1.38;;;0.93;;
23588;SDS011;11972;48.078;11.876;2023-05-07T11:43:09;1.17;;;0.90;;
23588;SDS011;11972;48.078;11.876;2023-05-07T11:47:11;1.63;;;0.90;;
23588;SDS011;11972;48.078;11.876;2023-05-07T11:51:11;2.17;;;1.50;;
23588;SDS011;11972;48.078;11.876;2023-05-07T11:55:13;1.30;;;0.93;;
23588;SDS011;11972;48.078;11.876;2023-05-07T11:59:16;1.90;;;1.13;;
23588;SDS011;11972;48.078;11.876;2023-05-07T12:03:17;2.53;;;0.93;;
23588;SDS011;11972;48.078;11.876;2023-05-07T12:07:18;1.20;;;1.10;;
23588;SDS011;11972;48.078;11.876;2023-05-07T12:11:22;1.00;;;0.90;;
23588;SDS011;11972;48.078;11.876;2023-05-07T12:15:23;1.52;;;1.00;;
23588;SDS011;11972;48.078;11.876;2023-05-07T12:19:30;1.15;;;1.05;;
23588;SDS011;11972;48.078;11.876;2023-05-07T12:23:31;2.80;;;2.30;;
23588;SDS011;11972;48.078;11.876;2023-05-07T12:27:33;2.05;;;1.50;;
23588;SDS011;11972;48.078;11.876;2023-05-07T12:31:39;1.52;;;1.20;;
23588;SDS011;11972;48.078;11.876;2023-05-07T12:35:41;1.58;;;1.30;;
23588;SDS011;11972;48.078;11.876;2023-05-07T12:40:04;2.40;;;1.92;;
23588;SDS011;11972;48.078;11.876;2023-05-07T12:44:06;2.53;;;2.33;;
23588;SDS011;11972;48.078;11.876;2023-05-07T12:48:07;1.60;;;1.50;;
23588;SDS011;11972;48.078;11.876;2023-05-07T12:52:10;1.45;;;1.35;;
23588;SDS011;11972;48.078;11.876;2023-05-07T12:56:11;1.52;;;1.30;;
23588;SDS011;11972;48.078;11.876;2023-05-07T13:00:12;1.43;;;1.33;;
23588;SDS011;11972;48.078;11.876;2023-05-07T13:04:12;1.92;;;1.40;;
23588;SDS011;11972;48.078;11.876;2023-05-07T13:08:13;2.40;;;2.20;;
23588;SDS011;11972;48.078;11.876;2023-05-07T13:12:24;2.70;;;1.88;;
23588;SDS011;11972;48.078;11.876;2023-05-07T13:16:24;2.00;;;1.50;;
23588;SDS011;11972;48.078;11.876;2023-05-07T13:20:24;0.90;;;0.70;;
23588;SDS011;11972;48.078;11.876;2023-05-07T13:24:25;1.50;;;1.40;;
23588;SDS011;11972;48.078;11.876;2023-05-07T13:28:25;1.77;;;1.50;;
23588;SDS011;11972;48.078;11.876;2023-05-07T13:32:26;1.23;;;1.13;;
23588;SDS011;11972;48.078;11.876;2023-05-07T13:36:26;2.67;;;1.37;;
23588;SDS011;11972;48.078;11.876;2023-05-07T13:40:26;1.90;;;1.40;;
23588;SDS011;11972;48.078;11.876;2023-05-07T13:44:27;1.93;;;1.40;;
23588;SDS011;11972;48.078;11.876;2023-05-07T13:48:27;4.03;;;3.13;;
23588;SDS011;11972;48.078;11.876;2023-05-07T13:52:28;1.70;;;1.60;;
23588;SDS011;11972;48.078;11.876;2023-05-07T13:56:28;2.30;;;1.57;;
23588;SDS011;11972;48.078;11.876;2023-05-07T14:00:30;1.73;;;1.40;;
23588;SDS011;11972;48.078;11.876;2023-05-07T14:04:31;1.20;;;0.90;;
23588;SDS011;11972;48.078;11.876;2023-05-07T14:08:31;1.88;;;1.52;;
23588;SDS011;11972;48.078;11.876;2023-05-07T14:12:32;1.17;;;1.07;;
23588;SDS011;11972;48.078;11.876;2023-05-07T14:16:33;3.53;;;3.22;;
23588;SDS011;11972;48.078;11.876;2023-05-07T14:20:33;2.33;;;2.13;;
23588;SDS011;11972;48.078;11.876;2023-05-07T14:24:36;2.47;;;2.30;;
23588;SDS011;11972;48.078;11.876;2023-05-07T14:28:36;3.10;;;2.80;;
23588;SDS011;11972;48.078;11.876;2023-05-07T14:32:39;4.80;;;4.30;;
23588;SDS011;11972;48.078;11.876;2023-05-07T14:36:39;4.57;;;3.35;;
23588;SDS011;11972;48.078;11.876;2023-05-07T14:40:40;1.70;;;1.38;;
23588;SDS011;11972;48.078;11.876;2023-05-07T14:44:40;1.42;;;1.30;;
23588;SDS011;11972;48.078;11.876;2023-05-07T14:48:41;2.53;;;1.77;;
23588;SDS011;11972;48.078;11.876;2023-05-07T14:52:41;2.15;;;1.13;;
23588;SDS011;11972;48.078;11.876;2023-05-07T14:56:42;1.30;;;1.00;;
23588;SDS011;11972;48.078;11.876;2023-05-07T15:00:42;1.55;;;1.40;;
23588;SDS011;11972;48.078;11.876;2023-05-07T15:04:43;2.50;;;1.50;;
23588;SDS011;11972;48.078;11.876;2023-05-07T15:08:50;2.30;;;1.67;;
23588;SDS011;11972;48.078;11.876;2023-05-07T15:12:50;3.53;;;2.27;;
23588;SDS011;11972;48.078;11.876;2023-05-07T15:16:50;2.30;;;2.10;;
23588;SDS011;11972;48.078;11.876;2023-05-07T15:20:51;1.70;;;1.00;;
23588;SDS011;11972;48.078;11.876;2023-05-07T15:24:51;2.58;;;1.48;;
23588;SDS011;11972;48.078;11.876;2023-05-07T15:28:51;1.47;;;1.00;;
23588;SDS011;11972;48.078;11.876;2023-05-07T15:32:52;1.13;;;0.97;;
23588;SDS011;11972;48.078;11.876;2023-05-07T15:36:52;2.13;;;1.10;;
23588;SDS011;11972;48.078;11.876;2023-05-07T15:40:53;1.30;;;0.87;;
23588;SDS011;11972;48.078;11.876;2023-05-07T15:44:54;2.13;;;0.90;;
23588;SDS011;11972;48.078;11.876;2023-05-07T15:48:54;1.50;;;1.40;;
23588;SDS011;11972;48.078;11.876;2023-05-07T15:52:55;8.05;;;1.00;;
23588;SDS011;11972;48.078;11.876;2023-05-07T15:56:55;1.73;;;0.90;;
23588;SDS011;11972;48.078;11.876;2023-05-07T16:00:56;2.10;;;1.90;;
23588;SDS011;11972;48.078;11.876;2023-05-07T16:04:56;1.30;;;0.90;;
23588;SDS011;11972;48.078;11.876;2023-05-07T16:08:56;3.47;;;3.17;;
23588;SDS011;11972;48.078;11.876;2023-05-07T16:12:57;0.80;;;0.80;;
23588;SDS011;11972;48.078;11.876;2023-05-07T16:16:57;6.18;;;2.00;;
23588;SDS011;11972;48.078;11.876;2023-05-07T16:20:57;1.53;;;1.10;;
23588;SDS011;11972;48.078;11.876;2023-05-07T16:24:59;1.25;;;1.10;;
23588;SDS011;11972;48.078;11.876;2023-05-07T16:29:00;2.92;;;1.08;;
23588;SDS011;11972;48.078;11.876;2023-05-07T16:33:01;3.33;;;0.97;;
23588;SDS011;11972;48.078;11.876;2023-05-07T16:37:02;2.63;;;1.13;;
23588;SDS011;11972;48.078;11.876;2023-05-07T16:41:03;1.02;;;0.90;;
23588;SDS011;11972;48.078;11.876;2023-05-07T16:45:07;1.90;;;1.17;;
23588;SDS011;11972;48.078;11.876;2023-05-07T16:49:08;1.40;;;1.00;;
23588;SDS011;11972;48.078;11.876;2023-05-07T16:53:11;3.90;;;0.90;;
23588;SDS011;11972;48.078;11.876;2023-05-07T16:57:12;1.23;;;0.90;;
23588;SDS011;11972;48.078;11.876;2023-05-07T17:01:12;2.35;;;1.00;;
23588;SDS011;11972;48.078;11.876;2023-05-07T17:05:14;3.13;;;0.93;;
23588;SDS011;11972;48.078;11.876;2023-05-07T17:09:14;1.02;;;0.88;;
23588;SDS011;11972;48.078;11.876;2023-05-07T17:13:14;1.00;;;0.90;;
23588;SDS011;11972;48.078;11.876;2023-05-07T17:17:15;1.65;;;1.13;;
23588;SDS011;11972;48.078;11.876;2023-05-07T17:21:15;3.10;;;2.33;;
23588;SDS011;11972;48.078;11.876;2023-05-07T17:25:16;1.80;;;1.50;;
23588;SDS011;11972;48.078;11.876;2023-05-07T17:29:16;2.55;;;1.75;;
23588;SDS011;11972;48.078;11.876;2023-05-07T17:33:18;1.83;;;1.25;;
23588;SDS011;11972;48.078;11.876;2023-05-07T17:37:18;1.33;;;1.17;;
23588;SDS011;11972;48.078;11.876;2023-05-07T17:41:18;1.38;;;0.90;;
23588;SDS011;11972;48.078;11.876;2023-05-07T17:45:20;1.90;;;1.70;;
23588;SDS011;11972;48.078;11.876;2023-05-07T17:49:21;1.33;;;0.95;;
23588;SDS011;11972;48.078;11.876;2023-05-07T17:53:21;1.53;;;1.20;;
23588;SDS011;11972;48.078;11.876;2023-05-07T17:57:23;1.63;;;1.50;;
23588;SDS011;11972;48.078;11.876;2023-05-07T18:01:24;2.28;;;1.00;;
23588;SDS011;11972;48.078;11.876;2023-05-07T18:05:24;1.20;;;0.90;;
23588;SDS011;11972;48.078;11.876;2023-05-07T18:09:25;4.28;;;2.97;;
23588;SDS011;11972;48.078;11.876;2023-05-07T18:13:26;2.38;;;1.27;;
23588;SDS011;11972;48.078;11.876;2023-05-07T18:17:26;1.67;;;0.93;;
23588;SDS011;11972;48.078;11.876;2023-05-07T18:21:27;1.48;;;1.38;;
23588;SDS011;11972;48.078;11.876;2023-05-07T18:25:27;2.03;;;1.93;;
23588;SDS011;11972;48.078;11.876;2023-05-07T18:29:27;1.45;;;1.10;;
23588;SDS011;11972;48.078;11.876;2023-05-07T18:33:28;1.87;;;1.50;;
23588;SDS011;11972;48.078;11.876;2023-05-07T18:37:28;2.58;;;2.13;;
23588;SDS011;11972;48.078;11.876;2023-05-07T18:41:28;1.45;;;1.23;;
23588;SDS011;11972;48.078;11.876;2023-05-07T18:45:29;2.50;;;1.63;;
23588;SDS011;11972;48.078;11.876;2023-05-07T18:49:29;1.63;;;1.52;;
23588;SDS011;11972;48.078;11.876;2023-05-07T18:53:29;4.23;;;1.60;;
23588;SDS011;11972;48.078;11.876;2023-05-07T18:57:30;3.47;;;3.17;;
23588;SDS011;11972;48.078;11.876;2023-05-07T19:01:30;5.68;;;2.30;;
23588;SDS011;11972;48.078;11.876;2023-05-07T19:05:31;3.70;;;1.53;;
23588;SDS011;11972;48.078;11.876;2023-05-07T19:09:31;1.75;;;1.35;;
23588;SDS011;11972;48.078;11.876;2023-05-07T19:13:32;1.50;;;1.40;;
23588;SDS011;11972;48.078;11.876;2023-05-07T19:17:32;2.20;;;2.00;;
23588;SDS011;11972;48.078;11.876;2023-05-07T19:21:34;2.67;;;2.10;;
23588;SDS011;11972;48.078;11.876;2023-05-07T19:25:34;2.65;;;1.80;;
23588;SDS011;11972;48.078;11.876;2023-05-07T19:29:35;1.25;;;1.15;;
23588;SDS011;11972;48.078;11.876;2023-05-07T19:33:35;1.60;;;1.50;;
23588;SDS011;11972;48.078;11.876;2023-05-07T19:37:35;3.17;;;1.30;;
23588;SDS011;11972;48.078;11.876;2023-05-07T19:41:36;2.67;;;1.50;;
23588;SDS011;11972;48.078;11.876;2023-05-07T19:45:36;3.50;;;2.67;;
23588;SDS011;11972;48.078;11.876;2023-05-07T19:49:39;2.08;;;1.85;;
23588;SDS011;11972;48.078;11.876;2023-05-07T19:53:40;3.03;;;2.30;;
23588;SDS011;11972;48.078;11.876;2023-05-07T19:57:40;2.30;;;1.20;;
23588;SDS011;11972;48.078;11.876;2023-05-07T20:01:41;2.80;;;1.08;;
23588;SDS011;11972;48.078;11.876;2023-05-07T20:05:41;1.40;;;1.30;;
23588;SDS011;11972;48.078;11.876;2023-05-07T20:09:41;2.30;;;1.30;;
23588;SDS011;11972;48.078;11.876;2023-05-07T20:13:42;3.00;;;1.50;;
23588;SDS011;11972;48.078;11.876;2023-05-07T20:17:42;3.43;;;2.00;;
23588;SDS011;11972;48.078;11.876;2023-05-07T20:21:42;2.73;;;2.53;;
23588;SDS011;11972;48.078;11.876;2023-05-07T20:25:43;7.00;;;4.30;;
23588;SDS011;11972;48.078;11.876;2023-05-07T20:30:05;6.93;;;6.32;;
23588;SDS011;11972;48.078;11.876;2023-05-07T20:34:08;5.60;;;3.38;;
23588;SDS011;11972;48.078;11.876;2023-05-07T20:38:09;5.97;;;3.47;;
23588;SDS011;11972;48.078;11.876;2023-05-07T20:42:10;7.63;;;6.00;;
23588;SDS011;11972;48.078;11.876;2023-05-07T20:46:10;6.70;;;5.90;;
23588;SDS011;11972;48.078;11.876;2023-05-07T20:50:10;3.53;;;3.22;;
23588;SDS011;11972;48.078;11.876;2023-05-07T20:54:11;3.10;;;2.70;;
23588;SDS011;11972;48.078;11.876;2023-05-07T20:58:13;3.83;;;3.53;;
23588;SDS011;11972;48.078;11.876;2023-05-07T21:02:14;5.93;;;3.42;;
23588;SDS011;11972;48.078;11.876;2023-05-07T21:06:14;3.47;;;3.17;;
23588;SDS011;11972;48.078;11.876;2023-05-07T21:10:15;3.97;;;3.65;;
23588;SDS011;11972;48.078;11.876;2023-05-07T21:14:16;3.97;;;3.67;;
23588;SDS011;11972;48.078;11.876;2023-05-07T21:18:17;3.40;;;3.15;;
23588;SDS011;11972;48.078;11.876;2023-05-07T21:22:18;4.25;;;3.63;;
23588;SDS011;11972;48.078;11.876;2023-05-07T21:26:18;4.22;;;3.83;;
23588;SDS011;11972;48.078;11.876;2023-05-07T21:30:19;5.95;;;4.65;;
23588;SDS011;11972;48.078;11.876;2023-05-07T21:34:20;5.00;;;4.60;;
23588;SDS011;11972;48.078;11.876;2023-05-07T21:38:20;5.80;;;5.20;;
23588;SDS011;11972;48.078;11.876;2023-05-07T21:42:20;5.72;;;5.28;;
23588;SDS011;11972;48.078;11.876;2023-05-07T21:46:21;6.05;;;5.55;;
23588;SDS011;11972;48.078;11.876;2023-05-07T21:50:21;6.32;;;5.72;;
23588;SDS011;11972;48.078;11.876;2023-05-07T21:54:22;5.68;;;5.28;;
23588;SDS011;11972;48.078;11.876;2023-05-07T21:58:22;6.25;;;5.65;;
23588;SDS011;11972;48.078;11.876;2023-05-07T22:02:23;7.37;;;6.20;;
23588;SDS011;11972;48.078;11.876;2023-05-07T22:06:23;6.45;;;5.88;;
23588;SDS011;11972;48.078;11.876;2023-05-07T22:10:24;6.60;;;5.85;;
23588;SDS011;11972;48.078;11.876;2023-05-07T22:14:24;7.38;;;6.78;;
23588;SDS011;11972;48.078;11.876;2023-05-07T22:18:25;7.18;;;6.47;;
23588;SDS011;11972;48.078;11.876;2023-05-07T22:22:25;6.85;;;6.25;;
23588;SDS011;11972;48.078;11.876;2023-05-07T22:26:25;7.10;;;6.50;;
23588;SDS011;11972;48.078;11.876;2023-05-07T22:30:26;8.30;;;5.68;;
23588;SDS011;11972;48.078;11.876;2023-05-07T22:34:26;7.47;;;6.57;;
23588;SDS011;11972;48.078;11.876;2023-05-07T22:38:27;6.57;;;6.03;;
23588;SDS011;11972;48.078;11.876;2023-05-07T22:42:27;6.40;;;5.90;;
23588;SDS011;11972;48.078;11.876;2023-05-07T22:46:27;7.20;;;6.27;;
23588;SDS011;11972;48.078;11.876;2023-05-07T22:50:28;7.13;;;6.53;;
23588;SDS011;11972;48.078;11.876;2023-05-07T22:54:31;7.63;;;6.37;;
23588;SDS011;11972;48.078;11.876;2023-05-07T22:58:32;7.50;;;6.63;;
23588;SDS011;11972;48.078;11.876;2023-05-07T23:02:33;7.72;;;7.03;;
23588;SDS011;11972;48.078;11.876;2023-05-07T23:06:33;7.13;;;6.53;;
23588;SDS011;11972;48.078;11.876;2023-05-07T23:10:33;7.57;;;6.87;;
23588;SDS011;11972;48.078;11.876;2023-05-07T23:14:34;8.10;;;7.40;;
23588;SDS011;11972;48.078;11.876;2023-05-07T23:18:34;8.13;;;7.45;;
23588;SDS011;11972;48.078;11.876;2023-05-07T23:22:34;7.80;;;7.10;;
23588;SDS011;11972;48.078;11.876;2023-05-07T23:26:35;8.00;;;7.33;;
23588;SDS011;11972;48.078;11.876;2023-05-07T23:30:35;8.43;;;7.50;;
23588;SDS011;11972;48.078;11.876;2023-05-07T23:34:35;7.68;;;6.97;;
23588;SDS011;11972;48.078;11.876;2023-05-07T23:38:36;7.60;;;6.90;;
23588;SDS011;11972;48.078;11.876;2023-05-07T23:42:36;7.45;;;6.70;;
23588;SDS011;11972;48.078;11.876;2023-05-07T23:46:36;10.18;;;6.70;;
23588;SDS011;11972;48.078;11.876;2023-05-07T23:50:37;6.77;;;6.23;;
23588;SDS011;11972;48.078;11.876;2023-05-07T23:54:37;7.25;;;6.65;;
23588;SDS011;11972;48.078;11.876;2023-05-07T23:58:37;7.20;;;6.60;;
